createdAt,value
2022-10-03T01:54:25.054Z,96.37
2022-10-03T01:59:27.301Z,96.62
2022-10-03T02:04:26.840Z,96.72
2022-10-03T02:09:24.948Z,96.83
2022-10-03T02:14:24.844Z,97.30
2022-10-03T02:19:24.766Z,97.19
2022-10-03T02:24:41.125Z,97.09
2022-10-03T02:29:25.671Z,97.19
2022-10-03T02:34:33.091Z,97.25
2022-10-03T02:39:24.440Z,97.66
2022-10-03T02:44:24.920Z,97.36
2022-10-03T02:49:24.362Z,97.25
2022-10-03T02:54:24.766Z,97.15
2022-10-03T02:59:24.258Z,96.84
2022-10-03T03:04:24.321Z,96.84
2022-10-03T03:09:24.067Z,96.89
2022-10-03T03:14:23.998Z,96.89
2022-10-03T03:19:23.982Z,97.09
2022-10-03T03:24:23.920Z,97.09
2022-10-03T03:29:24.029Z,97.19
2022-10-03T03:34:23.800Z,97.19
2022-10-03T03:39:24.856Z,96.99
2022-10-03T03:44:23.793Z,96.99
2022-10-03T03:49:23.725Z,97.50
2022-10-03T03:54:23.663Z,96.99
2022-10-03T03:59:23.548Z,96.99
2022-10-03T04:04:23.611Z,96.93
2022-10-03T04:09:23.594Z,97.14
2022-10-03T04:14:23.511Z,97.55
2022-10-03T04:19:23.445Z,97.81
2022-10-03T04:24:23.394Z,97.87
2022-10-03T04:29:23.228Z,97.77
2022-10-03T04:34:23.186Z,97.77
2022-10-03T04:39:23.099Z,98.28
2022-10-03T04:44:23.025Z,98.07
2022-10-03T04:49:22.975Z,98.24
2022-10-03T04:54:22.937Z,98.24
2022-10-03T04:59:22.853Z,98.13
2022-10-03T05:04:22.807Z,98.24
2022-10-03T05:09:22.746Z,98.13
2022-10-03T05:14:22.698Z,98.08
2022-10-03T05:19:22.737Z,98.08
2022-10-03T05:24:22.783Z,98.19
2022-10-03T05:29:22.720Z,98.04
2022-10-03T05:34:22.661Z,98.14
2022-10-03T05:39:22.595Z,98.25
2022-10-03T05:44:22.426Z,97.94
2022-10-03T05:49:22.360Z,97.83
2022-10-03T05:54:22.251Z,97.73
2022-10-03T05:59:22.205Z,98.04
2022-10-03T06:04:22.240Z,97.94
2022-10-03T06:09:22.103Z,97.94
2022-10-03T06:14:22.211Z,98.61
2022-10-03T06:19:22.115Z,98.16
2022-10-03T06:24:22.035Z,98.16
2022-10-03T06:29:22.014Z,98.32
2022-10-03T06:34:22.939Z,97.80
2022-10-03T06:39:21.870Z,97.86
2022-10-03T06:44:21.891Z,97.86
2022-10-03T06:49:21.790Z,98.12
2022-10-03T06:54:21.625Z,97.61
2022-10-03T06:59:21.572Z,97.46
2022-10-03T07:04:21.527Z,97.82
2022-10-03T07:09:21.442Z,97.78
2022-10-03T07:14:22.029Z,97.47
2022-10-03T07:19:21.411Z,97.33
2022-10-03T07:24:21.339Z,96.77
2022-10-03T07:29:21.294Z,96.46
2022-10-03T07:34:21.202Z,96.31
2022-10-03T07:39:21.160Z,96.11
2022-10-03T07:44:21.067Z,95.86
2022-10-03T07:49:21.057Z,95.61
2022-10-03T07:54:20.996Z,94.84
2022-10-03T07:59:21.031Z,94.53
2022-10-03T08:04:20.895Z,94.38
2022-10-03T08:09:21.017Z,94.34
2022-10-03T08:14:20.867Z,93.24
2022-10-03T08:19:20.893Z,91.87
2022-10-03T08:24:20.756Z,90.64
2022-10-03T08:29:20.687Z,90.50
2022-10-03T08:36:50.719Z,87.87
2022-10-03T08:41:50.671Z,87.73
2022-10-03T08:46:50.701Z,86.22
2022-10-03T08:51:50.594Z,85.62
2022-10-03T08:56:50.488Z,84.26
2022-10-03T09:01:50.609Z,83.67
2022-10-03T09:07:12.568Z,81.46
2022-10-03T09:11:52.436Z,80.41
2022-10-03T09:16:50.269Z,78.59
2022-10-03T09:21:50.196Z,78.79
2022-10-03T09:26:50.198Z,78.49
2022-10-03T09:31:50.240Z,78.08
2022-10-03T09:36:51.162Z,77.54
2022-10-03T09:41:49.989Z,78.66
2022-10-03T09:46:50.008Z,78.15
2022-10-03T09:51:49.980Z,78.08
2022-10-03T09:56:49.844Z,77.20
2022-10-03T10:01:49.977Z,78.11
2022-10-03T10:06:49.922Z,75.79
2022-10-03T10:11:50.251Z,75.55
2022-10-03T10:16:51.095Z,75.85
2022-10-03T10:21:49.637Z,76.70
2022-10-03T10:26:49.523Z,73.08
2022-10-03T10:31:49.491Z,73.15
2022-10-03T10:36:49.402Z,72.17
2022-10-03T10:41:49.310Z,72.07
2022-10-03T10:46:49.314Z,70.32
2022-10-03T10:51:49.232Z,70.32
2022-10-03T10:56:49.249Z,70.02
2022-10-03T11:01:49.099Z,68.98
2022-10-03T11:06:49.027Z,70.32
2022-10-03T11:11:48.973Z,71.80
2022-10-03T11:16:48.988Z,72.31
2022-10-03T11:21:48.886Z,72.11
2022-10-03T11:26:49.965Z,70.56
2022-10-03T11:31:48.940Z,68.91
2022-10-03T11:36:48.794Z,68.68
2022-10-03T11:41:48.634Z,69.99
2022-10-03T11:46:48.608Z,68.27
2022-10-03T11:51:53.422Z,63.30
2022-10-03T11:56:49.491Z,65.26
2022-10-03T12:01:51.398Z,65.90
2022-10-03T12:06:48.536Z,65.33
2022-10-03T12:11:48.383Z,63.99
2022-10-03T12:16:48.412Z,66.10
2022-10-03T12:21:48.224Z,65.02
2022-10-03T12:26:49.522Z,65.56
2022-10-03T12:31:48.321Z,65.46
2022-10-03T12:36:48.294Z,62.74
2022-10-03T12:41:48.203Z,66.36
2022-10-03T12:46:48.099Z,66.76
2022-10-03T12:51:47.996Z,66.66
2022-10-03T12:56:47.982Z,66.73
2022-10-03T13:01:47.932Z,67.40
2022-10-03T13:07:04.533Z,65.09
2022-10-03T13:11:48.765Z,66.09
2022-10-03T13:16:48.658Z,67.27
2022-10-03T13:21:47.717Z,63.47
2022-10-03T13:26:47.554Z,66.77
2022-10-03T13:31:47.594Z,63.85
2022-10-03T13:36:47.504Z,64.75
2022-10-03T13:41:47.664Z,64.78
2022-10-03T13:46:48.526Z,64.48
2022-10-03T13:51:48.482Z,65.92
2022-10-03T13:56:47.269Z,67.23
2022-10-03T14:01:47.429Z,67.16
2022-10-03T14:06:47.152Z,66.05
2022-10-03T14:11:47.124Z,66.59
2022-10-03T14:16:48.171Z,68.17
2022-10-03T14:21:47.186Z,67.47
2022-10-03T14:26:46.966Z,67.10
2022-10-03T14:31:48.166Z,69.31
2022-10-03T16:43:39.804Z,80.19
2022-10-03T16:48:39.774Z,81.04
2022-10-03T16:53:39.826Z,81.38
2022-10-03T16:58:39.737Z,81.82
2022-10-03T17:03:39.678Z,82.12
2022-10-03T17:08:42.383Z,82.57
2022-10-03T17:13:39.483Z,82.92
2022-10-03T17:18:39.474Z,82.65
2022-10-03T17:23:39.394Z,83.81
2022-10-03T17:28:39.459Z,83.60
2022-10-03T17:33:39.315Z,84.45
2022-10-03T17:38:49.672Z,85.72
2022-10-03T17:43:40.253Z,86.53
2022-10-03T17:48:39.129Z,85.96
2022-10-03T17:53:39.202Z,86.37
2022-10-03T17:58:39.146Z,87.02
2022-10-03T18:03:40.092Z,87.53
2022-10-03T18:08:39.033Z,88.28
2022-10-03T18:13:38.939Z,88.59
2022-10-03T18:18:38.848Z,88.63
2022-10-03T18:23:54.156Z,89.04
2022-10-03T18:28:39.919Z,90.10
2022-10-03T18:33:38.758Z,89.90
2022-10-03T18:38:38.648Z,90.31
2022-10-03T18:43:38.541Z,90.55
2022-10-03T18:48:38.462Z,91.27
2022-10-03T18:53:38.460Z,90.80
2022-10-03T18:58:38.339Z,91.20
2022-10-03T19:03:38.302Z,91.05
2022-10-03T19:08:38.268Z,91.35
2022-10-03T19:13:38.298Z,91.80
2022-10-03T19:18:38.206Z,92.01
2022-10-03T19:23:38.095Z,93.33
2022-10-03T19:28:38.141Z,92.83
2022-10-03T19:33:38.057Z,92.62
2022-10-03T19:38:37.964Z,92.72
2022-10-03T19:43:37.911Z,92.62
2022-10-03T19:48:37.803Z,93.07
2022-10-03T19:53:37.939Z,93.28
2022-10-03T19:58:37.682Z,93.18
2022-10-03T20:03:37.735Z,93.07
2022-10-03T20:08:37.673Z,93.38
2022-10-03T20:13:37.661Z,93.43
2022-10-03T20:18:39.659Z,93.06
2022-10-03T20:23:37.493Z,93.06
2022-10-03T20:28:39.417Z,93.30
2022-10-03T20:33:37.677Z,93.82
2022-10-03T20:38:37.348Z,93.41
2022-10-03T20:43:41.233Z,93.71
2022-10-03T20:48:37.165Z,94.23
2022-10-03T20:53:37.490Z,93.76
2022-10-03T20:58:37.071Z,94.48
2022-10-03T21:03:37.178Z,94.27
2022-10-03T21:08:37.050Z,94.21
2022-10-03T21:13:37.096Z,94.11
2022-10-03T21:18:36.944Z,94.36
2022-10-03T21:23:46.736Z,93.90
2022-10-03T21:28:36.849Z,94.36
2022-10-03T21:33:36.612Z,94.36
2022-10-03T21:38:36.534Z,94.77
2022-10-03T21:43:36.484Z,94.67
2022-10-03T21:48:36.433Z,94.77
2022-10-03T21:53:36.484Z,94.77
2022-10-03T21:58:36.423Z,94.71
2022-10-03T22:03:37.335Z,94.81
2022-10-03T22:08:36.327Z,94.81
2022-10-03T22:13:36.243Z,95.39
2022-10-03T22:18:36.208Z,95.02
2022-10-03T22:23:36.050Z,94.92
2022-10-03T22:28:36.057Z,96.04
2022-10-03T22:33:35.939Z,95.69
2022-10-03T22:38:35.881Z,95.12
2022-10-03T22:43:35.796Z,94.76
2022-10-03T22:48:35.768Z,94.96
2022-10-03T22:53:35.744Z,95.47
2022-10-03T22:58:35.700Z,96.04
2022-10-03T23:03:35.692Z,95.47
2022-10-03T23:08:35.653Z,95.06
2022-10-03T23:13:35.595Z,95.17
2022-10-03T23:18:35.622Z,95.31
2022-10-03T23:23:36.640Z,95.42
2022-10-03T23:28:35.367Z,95.52
2022-10-03T23:33:35.311Z,95.83
2022-10-03T23:38:35.182Z,95.42
2022-10-03T23:43:35.154Z,95.72
2022-10-03T23:48:35.101Z,95.62
2022-10-03T23:53:35.141Z,95.52
2022-10-03T23:58:35.113Z,95.52
